Time;durP1;ratioP1;P1;durP2;ratioP2;P2;SDS_P1;SDS_P2;PMS_P1;PMS_P2;Temp;Humidity;BMP_temperature;BMP_pressure;BME280_temperature;BME280_humidity;BME280_pressure;Samples;Min_cycle;Max_cycle;Signal;HPM_P1;HPM_P2
2024/03/27 00:01:11;;;;;;;3.72;3.08;;;8.90;99.90;;;;;;5097644;28;20036;-64
2024/03/27 00:03:37;;;;;;;6.28;3.05;;;8.90;99.90;;;;;;5098984;28;20059;-65
2024/03/27 00:06:06;;;;;;;4.88;3.22;;;8.80;99.90;;;;;;5097239;28;20032;-65
2024/03/27 00:08:32;;;;;;;5.03;3.50;;;8.80;99.90;;;;;;5100610;28;20039;-64
2024/03/27 00:10:58;;;;;;;5.30;2.85;;;8.70;99.90;;;;;;5098079;28;20423;-64
2024/03/27 00:13:24;;;;;;;6.20;3.13;;;8.70;99.90;;;;;;5100813;28;20501;-64
2024/03/27 00:15:54;;;;;;;5.75;2.80;;;8.60;99.90;;;;;;5095393;28;20043;-64
2024/03/27 00:18:21;;;;;;;3.88;2.90;;;8.60;99.90;;;;;;5101540;28;20075;-64
2024/03/27 00:20:47;;;;;;;3.60;3.10;;;8.50;99.90;;;;;;5096605;28;20158;-65
2024/03/27 00:23:14;;;;;;;6.43;3.45;;;8.50;99.90;;;;;;5094936;28;20138;-64
2024/03/27 00:25:40;;;;;;;3.92;3.28;;;8.50;99.90;;;;;;5085086;28;20052;-64
2024/03/27 00:28:06;;;;;;;7.65;3.50;;;8.40;99.90;;;;;;5095360;28;20039;-64
2024/03/27 00:30:32;;;;;;;5.28;3.20;;;8.50;99.90;;;;;;5072780;28;21365;-64
2024/03/27 00:32:59;;;;;;;6.10;3.53;;;8.50;99.90;;;;;;5097389;28;20050;-64
2024/03/27 00:35:25;;;;;;;4.68;3.15;;;8.60;99.90;;;;;;5091126;28;20070;-64
2024/03/27 00:37:54;;;;;;;4.97;3.00;;;8.50;99.90;;;;;;5081461;28;20043;-64
2024/03/27 00:40:20;;;;;;;12.60;3.38;;;8.60;99.90;;;;;;5096116;28;20101;-65
2024/03/27 00:42:46;;;;;;;5.28;3.42;;;8.60;99.90;;;;;;5095817;28;20070;-65
2024/03/27 00:45:13;;;;;;;5.32;3.60;;;8.60;99.90;;;;;;5092401;28;20079;-65
2024/03/27 00:47:39;;;;;;;4.25;3.20;;;8.60;99.90;;;;;;5092252;28;20040;-65
2024/03/27 00:50:06;;;;;;;5.60;3.60;;;8.50;99.90;;;;;;5092034;28;20032;-65
2024/03/27 00:52:32;;;;;;;4.55;3.50;;;8.50;99.90;;;;;;5116027;27;20040;-65
2024/03/27 00:54:58;;;;;;;4.78;3.22;;;8.40;99.90;;;;;;5091765;28;20044;-64
2024/03/27 00:57:24;;;;;;;5.18;3.50;;;8.40;99.90;;;;;;5098969;28;20155;-64
2024/03/27 00:59:49;;;;;;;6.95;3.60;;;8.40;99.90;;;;;;5099206;28;20429;-64
2024/03/27 01:02:15;;;;;;;4.60;3.83;;;8.30;99.90;;;;;;5100213;28;20035;-65
2024/03/27 01:04:41;;;;;;;3.80;3.20;;;8.30;99.90;;;;;;5093499;28;20486;-64
2024/03/27 01:07:06;;;;;;;6.40;4.20;;;8.30;99.90;;;;;;5097243;28;20135;-64
2024/03/27 01:09:33;;;;;;;6.57;3.88;;;8.20;99.90;;;;;;5098708;28;20477;-64
2024/03/27 01:11:58;;;;;;;4.93;3.10;;;8.10;99.90;;;;;;5098940;28;20036;-64
2024/03/27 01:14:25;;;;;;;4.63;3.55;;;8.10;99.90;;;;;;5098950;28;20035;-64
2024/03/27 01:16:50;;;;;;;6.40;4.15;;;8.00;99.90;;;;;;5097597;28;20122;-64
2024/03/27 01:19:16;;;;;;;5.63;3.60;;;8.10;99.90;;;;;;5095520;28;20127;-64
2024/03/27 01:21:42;;;;;;;5.05;3.80;;;8.10;99.90;;;;;;5093102;28;20502;-64
2024/03/27 01:24:07;;;;;;;4.43;3.33;;;8.10;99.90;;;;;;5095745;28;20038;-64
2024/03/27 01:26:33;;;;;;;3.95;3.30;;;8.10;99.90;;;;;;5095771;28;20028;-64
2024/03/27 01:28:59;;;;;;;4.22;3.33;;;8.10;99.90;;;;;;5094194;28;20051;-64
2024/03/27 01:31:24;;;;;;;4.75;3.35;;;8.10;99.90;;;;;;5095815;28;20048;-64
2024/03/27 01:33:50;;;;;;;4.82;3.88;;;8.10;99.90;;;;;;5094913;28;20363;-65
2024/03/27 01:36:15;;;;;;;9.10;3.30;;;8.10;99.90;;;;;;5092100;28;20075;-65
2024/03/27 01:38:41;;;;;;;4.90;3.75;;;8.10;99.90;;;;;;5092062;28;20486;-65
2024/03/27 01:41:07;;;;;;;7.85;4.15;;;8.00;99.90;;;;;;5094035;28;20040;-64
2024/03/27 01:43:32;;;;;;;4.93;3.60;;;8.00;99.90;;;;;;5097106;28;20103;-64
2024/03/27 01:45:58;;;;;;;5.78;3.67;;;7.90;99.90;;;;;;5092518;28;20048;-64
2024/03/27 01:48:25;;;;;;;4.35;3.50;;;7.90;99.90;;;;;;5092533;28;20487;-64
2024/03/27 01:50:52;;;;;;;3.35;3.05;;;7.80;99.90;;;;;;5099239;28;20501;-64
2024/03/27 01:53:19;;;;;;;6.18;3.60;;;7.80;99.90;;;;;;5101060;28;20110;-64
2024/03/27 01:55:46;;;;;;;6.53;3.67;;;7.80;99.90;;;;;;5101104;28;20028;-64
2024/03/27 01:58:12;;;;;;;5.85;3.72;;;7.80;99.90;;;;;;5100860;28;20092;-64
2024/03/27 02:00:37;;;;;;;4.75;3.35;;;7.80;99.90;;;;;;5081668;28;20040;-64
2024/03/27 02:03:04;;;;;;;4.50;2.97;;;7.80;99.90;;;;;;5097129;28;20091;-65
2024/03/27 02:05:30;;;;;;;4.88;3.05;;;7.80;99.90;;;;;;5100663;28;20612;-65
2024/03/27 02:07:55;;;;;;;3.50;3.20;;;7.80;99.90;;;;;;5100017;28;20130;-64
2024/03/27 02:10:21;;;;;;;3.65;3.30;;;7.70;99.90;;;;;;5094703;28;20394;-64
2024/03/27 02:12:47;;;;;;;3.40;3.10;;;7.70;99.90;;;;;;5100627;28;20107;-64
2024/03/27 02:15:13;;;;;;;4.68;3.10;;;7.80;99.90;;;;;;5096176;28;20059;-65
2024/03/27 02:17:39;;;;;;;4.78;3.83;;;7.70;99.90;;;;;;5096302;28;20051;-64
2024/03/27 02:20:06;;;;;;;3.75;2.97;;;7.70;99.90;;;;;;5097619;28;20039;-64
2024/03/27 02:22:33;;;;;;;5.60;3.38;;;7.80;99.90;;;;;;5100481;28;20156;-64
2024/03/27 02:25:33;;;;;;;4.13;2.85;;;7.80;99.90;;;;;;5100396;28;20040;-64
2024/03/27 02:27:59;;;;;;;5.03;3.33;;;7.80;99.90;;;;;;5099933;28;20055;-64
2024/03/27 02:30:24;;;;;;;4.85;3.10;;;7.80;99.90;;;;;;5097695;28;20402;-64
2024/03/27 02:32:50;;;;;;;3.95;3.47;;;7.80;99.90;;;;;;5099804;28;20028;-64
2024/03/27 02:35:18;;;;;;;4.43;2.88;;;7.80;99.90;;;;;;5099123;28;20093;-64
2024/03/27 02:37:44;;;;;;;5.22;2.78;;;7.80;99.90;;;;;;5097390;28;20043;-64
2024/03/27 02:40:10;;;;;;;4.22;2.75;;;7.80;99.90;;;;;;5098452;28;20039;-64
2024/03/27 02:42:36;;;;;;;4.40;3.20;;;7.80;99.90;;;;;;5095031;28;20036;-64
2024/03/27 02:45:02;;;;;;;6.78;4.32;;;7.70;99.90;;;;;;5096647;28;20128;-64
2024/03/27 02:47:27;;;;;;;3.30;3.00;;;7.70;99.90;;;;;;5101644;28;20521;-64
2024/03/27 02:49:53;;;;;;;4.25;3.35;;;7.70;99.90;;;;;;5097171;28;20055;-64
2024/03/27 02:52:19;;;;;;;3.90;2.80;;;7.70;99.90;;;;;;5097564;28;20032;-64
2024/03/27 02:54:44;;;;;;;4.82;3.38;;;7.70;99.90;;;;;;5098050;28;20160;-64
2024/03/27 02:57:10;;;;;;;3.53;2.92;;;7.60;99.90;;;;;;5100477;28;20397;-64
2024/03/27 02:59:35;;;;;;;7.40;3.08;;;7.60;99.90;;;;;;5096776;28;20032;-64
2024/03/27 03:02:01;;;;;;;3.95;3.40;;;7.60;99.90;;;;;;5097736;28;20405;-65
2024/03/27 03:04:26;;;;;;;5.15;3.90;;;7.60;99.90;;;;;;5096072;28;20093;-64
2024/03/27 03:06:52;;;;;;;4.68;3.63;;;7.60;99.90;;;;;;5098004;28;20036;-64
2024/03/27 03:09:18;;;;;;;4.22;3.38;;;7.60;99.90;;;;;;5094697;28;20525;-64
2024/03/27 03:11:44;;;;;;;5.20;3.30;;;7.60;99.90;;;;;;5097894;28;20089;-64
2024/03/27 03:14:09;;;;;;;4.07;3.47;;;7.60;99.90;;;;;;5100144;28;20040;-64
2024/03/27 03:16:35;;;;;;;7.07;3.58;;;7.60;99.90;;;;;;5095529;28;20493;-64
2024/03/27 03:19:00;;;;;;;6.93;3.03;;;7.50;99.90;;;;;;5100856;28;20044;-64
2024/03/27 03:21:26;;;;;;;6.05;3.40;;;7.50;99.90;;;;;;5098864;28;20735;-65
2024/03/27 03:23:51;;;;;;;5.15;3.30;;;7.50;99.90;;;;;;5098081;28;20036;-64
2024/03/27 03:26:17;;;;;;;5.95;3.17;;;7.60;99.90;;;;;;5102225;28;20089;-64
2024/03/27 03:28:43;;;;;;;3.85;3.33;;;7.50;99.90;;;;;;5094621;28;20132;-64
2024/03/27 03:31:08;;;;;;;5.15;3.03;;;7.50;99.90;;;;;;5091457;28;20048;-65
2024/03/27 03:33:34;;;;;;;4.70;3.42;;;7.50;99.90;;;;;;5099272;28;20398;-64
2024/03/27 03:36:00;;;;;;;3.50;3.20;;;7.50;99.90;;;;;;5084944;28;20036;-64
2024/03/27 03:38:26;;;;;;;4.85;3.25;;;7.50;99.90;;;;;;5098826;28;20048;-64
2024/03/27 03:40:56;;;;;;;3.25;2.80;;;7.50;99.90;;;;;;5097702;28;20457;-64
2024/03/27 03:43:22;;;;;;;5.57;3.15;;;7.60;99.90;;;;;;5099013;28;20460;-64
2024/03/27 03:45:48;;;;;;;3.35;3.03;;;7.60;99.90;;;;;;5100722;28;20040;-64
2024/03/27 03:48:14;;;;;;;4.75;3.40;;;7.60;99.90;;;;;;5093770;28;20478;-64
2024/03/27 03:50:39;;;;;;;3.97;3.58;;;7.70;99.90;;;;;;5095607;28;20042;-64
2024/03/27 03:53:05;;;;;;;4.82;2.95;;;7.70;99.90;;;;;;5100120;28;20486;-64
2024/03/27 03:55:30;;;;;;;4.50;3.28;;;7.80;99.90;;;;;;5101552;28;20501;-64
2024/03/27 03:57:57;;;;;;;3.75;3.45;;;7.70;99.90;;;;;;5099642;28;20047;-64
2024/03/27 04:00:24;;;;;;;5.22;3.45;;;7.70;99.90;;;;;;5096784;28;20570;-64
2024/03/27 04:02:51;;;;;;;4.25;3.33;;;7.80;99.90;;;;;;5097143;28;20078;-64
2024/03/27 04:05:16;;;;;;;3.83;3.47;;;7.80;99.90;;;;;;5093331;28;20027;-64
2024/03/27 04:07:42;;;;;;;3.78;3.00;;;7.80;99.90;;;;;;5097515;28;20032;-64
2024/03/27 04:10:08;;;;;;;5.10;3.53;;;7.80;99.90;;;;;;5099900;28;20039;-64
2024/03/27 04:12:33;;;;;;;3.92;3.53;;;7.90;99.90;;;;;;5097943;28;20064;-64
2024/03/27 04:14:59;;;;;;;4.50;3.65;;;7.80;99.90;;;;;;5094443;28;20039;-64
2024/03/27 04:17:25;;;;;;;4.47;3.60;;;7.90;99.90;;;;;;5099358;28;20035;-64
2024/03/27 04:19:50;;;;;;;3.80;3.33;;;7.90;99.90;;;;;;5095182;28;20063;-64
2024/03/27 04:22:16;;;;;;;6.28;3.70;;;7.90;99.90;;;;;;5100260;28;20048;-64
2024/03/27 04:24:46;;;;;;;4.82;4.15;;;7.90;99.90;;;;;;5099531;28;20036;-64
2024/03/27 04:27:12;;;;;;;4.70;3.58;;;7.90;99.90;;;;;;5097981;28;20498;-64
2024/03/27 04:29:38;;;;;;;3.88;3.38;;;7.90;99.90;;;;;;5096640;28;20119;-64
2024/03/27 04:32:04;;;;;;;7.25;3.13;;;8.00;99.90;;;;;;5094412;28;20032;-64
2024/03/27 04:34:33;;;;;;;4.18;3.15;;;8.00;99.90;;;;;;5095860;28;20085;-64
2024/03/27 04:36:58;;;;;;;6.18;4.15;;;8.00;99.90;;;;;;5093504;28;20097;-65
2024/03/27 04:39:24;;;;;;;3.40;3.08;;;8.00;99.90;;;;;;5078471;28;20040;-65
2024/03/27 04:41:52;;;;;;;4.00;3.25;;;8.10;99.90;;;;;;5096074;28;20031;-65
2024/03/27 04:44:18;;;;;;;5.85;3.35;;;8.10;99.90;;;;;;5097134;28;20044;-64
2024/03/27 04:46:44;;;;;;;4.45;3.70;;;8.10;99.90;;;;;;5095256;28;20040;-64
2024/03/27 04:49:10;;;;;;;4.15;3.72;;;8.20;99.90;;;;;;5098879;28;20082;-64
2024/03/27 04:51:35;;;;;;;4.45;3.25;;;8.20;99.90;;;;;;5099156;28;20072;-64
2024/03/27 04:54:02;;;;;;;3.75;3.33;;;8.20;99.90;;;;;;5101273;28;20089;-64
2024/03/27 04:56:28;;;;;;;3.83;3.40;;;8.20;99.90;;;;;;5094156;28;20044;-64
2024/03/27 04:58:54;;;;;;;5.38;3.90;;;8.30;99.90;;;;;;5098228;28;20127;-65
2024/03/27 05:01:19;;;;;;;6.13;3.63;;;8.30;99.90;;;;;;5093629;28;20092;-65
2024/03/27 05:03:46;;;;;;;4.40;4.00;;;8.30;99.90;;;;;;5096085;28;20478;-65
2024/03/27 05:06:12;;;;;;;3.35;3.08;;;8.30;99.90;;;;;;5095313;28;20094;-65
2024/03/27 05:08:37;;;;;;;4.90;3.60;;;8.30;99.90;;;;;;5094678;28;20043;-65
2024/03/27 05:11:03;;;;;;;5.40;3.28;;;8.30;99.90;;;;;;5092551;28;20036;-65
2024/03/27 05:13:29;;;;;;;4.22;3.22;;;8.20;99.90;;;;;;5095584;28;20764;-64
2024/03/27 05:15:55;;;;;;;4.40;3.47;;;8.20;99.90;;;;;;5090552;28;20059;-64
2024/03/27 05:18:20;;;;;;;5.57;3.70;;;8.20;99.90;;;;;;5094294;28;20051;-64
2024/03/27 05:20:46;;;;;;;3.95;3.55;;;8.20;99.90;;;;;;5099546;28;20043;-65
2024/03/27 05:23:13;;;;;;;6.20;3.90;;;8.20;99.90;;;;;;5097220;28;20043;-64
2024/03/27 05:25:39;;;;;;;6.40;3.88;;;8.20;99.90;;;;;;5090820;28;20040;-64
2024/03/27 05:28:11;;;;;;;5.05;3.25;;;8.10;99.90;;;;;;5087568;28;20070;-64
2024/03/27 05:30:36;;;;;;;6.13;3.80;;;8.20;99.90;;;;;;5107665;28;20039;-64
2024/03/27 05:33:02;;;;;;;8.52;3.75;;;8.20;99.90;;;;;;5095719;28;20036;-64
2024/03/27 05:35:28;;;;;;;5.90;4.32;;;8.20;99.90;;;;;;5093394;28;20371;-64
2024/03/27 05:37:54;;;;;;;4.80;3.47;;;8.20;99.90;;;;;;5090455;28;20100;-64
2024/03/27 05:40:20;;;;;;;5.60;4.10;;;8.30;99.90;;;;;;5091667;28;20047;-64
2024/03/27 05:42:45;;;;;;;5.60;3.58;;;8.30;99.90;;;;;;5091529;28;20031;-64
2024/03/27 05:45:11;;;;;;;6.20;3.72;;;8.30;99.90;;;;;;5087480;28;20081;-64
2024/03/27 05:47:37;;;;;;;4.03;3.67;;;8.30;99.90;;;;;;5089812;28;20036;-64
2024/03/27 05:50:05;;;;;;;5.38;3.47;;;8.40;99.90;;;;;;5088358;28;21825;-64
2024/03/27 05:52:30;;;;;;;5.05;4.00;;;8.40;99.90;;;;;;5093668;28;20046;-64
2024/03/27 05:54:57;;;;;;;7.30;3.67;;;8.50;99.90;;;;;;5097341;28;20390;-64
2024/03/27 05:57:22;;;;;;;3.78;3.10;;;8.60;99.90;;;;;;5095108;28;20042;-64
2024/03/27 05:59:48;;;;;;;4.05;3.10;;;9.20;99.90;;;;;;5092611;28;20040;-65
2024/03/27 06:02:14;;;;;;;4.50;3.97;;;9.90;99.90;;;;;;5095119;28;20032;-65
2024/03/27 06:04:39;;;;;;;4.28;3.55;;;10.40;99.90;;;;;;5075069;28;20047;-64
2024/03/27 06:07:06;;;;;;;5.85;3.55;;;10.60;99.90;;;;;;5093990;28;20040;-65
2024/03/27 06:09:32;;;;;;;5.35;3.25;;;10.60;99.90;;;;;;5093182;28;20495;-65
2024/03/27 06:11:57;;;;;;;6.30;3.92;;;10.40;99.90;;;;;;5093357;28;20114;-64
2024/03/27 06:14:23;;;;;;;4.55;3.97;;;10.30;99.90;;;;;;5094676;28;20040;-64
2024/03/27 06:16:49;;;;;;;5.72;4.35;;;10.00;99.90;;;;;;5093383;28;20500;-64
2024/03/27 06:19:16;;;;;;;4.85;3.80;;;9.80;99.90;;;;;;5092582;28;20043;-64
2024/03/27 06:21:42;;;;;;;5.22;3.97;;;9.80;99.90;;;;;;5091087;28;20044;-64
2024/03/27 06:24:08;;;;;;;5.88;3.88;;;9.80;99.90;;;;;;5094297;28;20403;-64
2024/03/27 06:26:34;;;;;;;3.17;2.88;;;10.00;99.90;;;;;;5094454;28;20040;-64
2024/03/27 06:29:00;;;;;;;4.65;3.92;;;10.10;99.90;;;;;;5093249;28;20052;-64
2024/03/27 06:31:26;;;;;;;5.80;3.95;;;10.20;99.90;;;;;;5091460;28;20036;-64
2024/03/27 06:33:52;;;;;;;5.28;3.60;;;10.10;99.90;;;;;;5092043;28;20040;-64
2024/03/27 06:36:17;;;;;;;4.28;3.42;;;10.10;99.90;;;;;;5095141;28;20173;-64
2024/03/27 06:38:43;;;;;;;4.53;3.85;;;10.10;99.90;;;;;;5095440;28;20071;-64
2024/03/27 06:41:08;;;;;;;4.35;3.53;;;10.20;99.90;;;;;;5095358;28;20710;-64
2024/03/27 06:43:34;;;;;;;4.93;3.25;;;10.30;99.90;;;;;;5098046;28;20044;-64
2024/03/27 06:46:00;;;;;;;5.03;3.90;;;10.50;99.90;;;;;;5099122;28;20049;-64
2024/03/27 06:48:32;;;;;;;3.95;3.40;;;11.00;99.90;;;;;;5095962;28;20152;-64
2024/03/27 06:50:58;;;;;;;7.63;3.53;;;11.50;99.90;;;;;;5098487;28;20047;-64
2024/03/27 06:53:24;;;;;;;5.18;3.53;;;12.00;99.90;;;;;;5096090;28;20224;-64
2024/03/27 06:55:50;;;;;;;5.28;3.65;;;12.60;99.90;;;;;;5099725;28;20125;-65
2024/03/27 06:58:16;;;;;;;3.15;2.85;;;12.90;99.90;;;;;;5096973;28;20558;-65
2024/03/27 07:00:42;;;;;;;5.57;3.67;;;13.00;99.90;;;;;;5088063;28;20604;-64
2024/03/27 07:03:08;;;;;;;6.80;3.15;;;13.00;99.90;;;;;;5087850;28;20058;-66
2024/03/27 07:05:34;;;;;;;5.80;3.72;;;12.80;99.90;;;;;;5087601;28;20097;-67
2024/03/27 07:08:01;;;;;;;6.97;3.85;;;12.50;99.90;;;;;;5087898;28;20622;-66
2024/03/27 07:10:26;;;;;;;4.85;3.47;;;12.30;99.90;;;;;;5092177;28;20074;-66
2024/03/27 07:12:52;;;;;;;7.15;4.13;;;12.20;99.90;;;;;;5092449;28;20109;-66
2024/03/27 07:15:18;;;;;;;11.30;4.50;;;12.10;99.90;;;;;;5089514;28;20035;-66
2024/03/27 07:17:46;;;;;;;5.13;3.50;;;12.20;99.90;;;;;;5077344;28;20043;-65
2024/03/27 07:20:12;;;;;;;7.85;3.70;;;12.00;99.90;;;;;;5092574;28;20050;-65
2024/03/27 07:22:37;;;;;;;4.72;3.67;;;11.90;99.90;;;;;;5087321;28;20039;-65
2024/03/27 07:25:03;;;;;;;5.90;4.00;;;11.90;99.90;;;;;;5102694;28;20088;-65
2024/03/27 07:27:33;;;;;;;4.18;3.50;;;12.00;99.90;;;;;;5095777;28;20043;-64
2024/03/27 07:29:58;;;;;;;5.60;3.47;;;12.10;99.90;;;;;;5097117;28;20051;-65
2024/03/27 07:32:24;;;;;;;5.82;2.90;;;12.10;99.90;;;;;;5093133;28;20039;-65
2024/03/27 07:34:50;;;;;;;7.60;3.58;;;12.10;99.90;;;;;;5096762;28;20035;-65
2024/03/27 07:37:15;;;;;;;8.13;3.55;;;12.10;99.90;;;;;;5095251;28;20036;-65
2024/03/27 07:39:41;;;;;;;5.70;3.55;;;12.10;99.90;;;;;;5093601;28;20385;-65
2024/03/27 07:42:06;;;;;;;7.65;3.30;;;12.10;99.90;;;;;;5092856;28;20093;-65
2024/03/27 07:44:32;;;;;;;4.40;3.38;;;12.10;99.90;;;;;;5092864;28;20467;-64
2024/03/27 07:46:57;;;;;;;5.18;3.35;;;12.30;99.90;;;;;;5091951;28;20059;-65
2024/03/27 07:49:23;;;;;;;6.43;3.15;;;12.20;99.90;;;;;;5097671;28;20032;-65
2024/03/27 07:51:49;;;;;;;3.42;2.80;;;12.20;99.90;;;;;;5094644;28;20559;-64
2024/03/27 07:54:14;;;;;;;6.43;3.30;;;12.20;99.90;;;;;;5095302;28;20024;-64
2024/03/27 07:56:44;;;;;;;5.53;2.60;;;12.30;99.90;;;;;;5084670;28;20043;-64
2024/03/27 07:59:10;;;;;;;4.13;3.30;;;12.40;99.90;;;;;;5085470;28;20040;-64
2024/03/27 08:01:36;;;;;;;5.38;3.25;;;12.30;99.90;;;;;;5088397;28;20514;-64
2024/03/27 08:04:02;;;;;;;3.90;2.60;;;12.40;99.90;;;;;;5091991;28;20151;-64
2024/03/27 08:06:27;;;;;;;11.38;3.47;;;12.50;99.90;;;;;;5088238;28;20087;-64
2024/03/27 08:08:53;;;;;;;3.92;2.58;;;12.50;99.90;;;;;;5081789;28;20105;-64
2024/03/27 08:11:19;;;;;;;11.65;3.17;;;12.60;99.90;;;;;;5094413;28;20040;-64
2024/03/27 08:13:44;;;;;;;9.60;2.92;;;12.60;99.90;;;;;;5090652;28;20485;-64
2024/03/27 08:16:10;;;;;;;6.70;3.13;;;12.60;99.90;;;;;;5096854;28;20028;-64
2024/03/27 08:18:43;;;;;;;50.40;6.25;;;12.60;99.90;;;;;;5090324;28;20123;-65
2024/03/27 08:21:08;;;;;;;34.50;5.35;;;12.50;99.90;;;;;;5099536;28;20652;-64
2024/03/27 08:23:34;;;;;;;27.85;4.10;;;12.60;99.90;;;;;;5079991;28;20047;-64
2024/03/27 08:26:00;;;;;;;5.05;2.95;;;12.50;99.90;;;;;;5091644;28;20032;-64
2024/03/27 08:28:26;;;;;;;19.60;3.67;;;12.50;99.90;;;;;;5093238;28;20047;-64
2024/03/27 08:30:53;;;;;;;7.90;3.38;;;12.60;99.90;;;;;;5093553;28;20447;-65
2024/03/27 08:33:19;;;;;;;7.80;4.47;;;12.50;99.90;;;;;;5086311;28;20454;-65
2024/03/27 08:35:45;;;;;;;9.25;4.07;;;12.50;99.90;;;;;;5091027;28;20119;-65
2024/03/27 08:38:10;;;;;;;6.07;3.65;;;12.50;99.90;;;;;;5090027;28;20135;-65
2024/03/27 08:40:36;;;;;;;4.05;3.30;;;12.50;99.90;;;;;;5094966;28;20076;-64
2024/03/27 08:43:02;;;;;;;14.73;3.67;;;12.40;99.90;;;;;;5088630;28;20456;-64
2024/03/27 08:45:28;;;;;;;8.93;3.95;;;12.40;99.90;;;;;;5096877;28;20520;-64
2024/03/27 08:47:53;;;;;;;15.75;3.97;;;12.50;99.90;;;;;;5090844;28;20044;-64
2024/03/27 08:50:19;;;;;;;3.97;3.33;;;12.50;99.90;;;;;;5093045;28;20044;-64
2024/03/27 08:52:46;;;;;;;25.23;4.70;;;12.60;99.90;;;;;;5094623;28;20122;-64
2024/03/27 08:55:12;;;;;;;14.20;4.47;;;12.60;99.90;;;;;;5088210;28;20385;-64
2024/03/27 08:57:38;;;;;;;5.97;3.25;;;12.60;99.90;;;;;;5092637;28;20062;-64
2024/03/27 09:00:06;;;;;;;29.58;6.47;;;12.60;99.90;;;;;;5093202;28;20039;-64
2024/03/27 09:02:31;;;;;;;12.43;3.85;;;12.60;99.90;;;;;;5094138;28;20390;-64
2024/03/27 09:04:57;;;;;;;35.13;5.10;;;12.60;99.90;;;;;;5093740;28;20043;-64
2024/03/27 09:07:23;;;;;;;5.95;2.90;;;12.60;99.90;;;;;;5088829;28;20358;-64
2024/03/27 09:09:49;;;;;;;15.85;4.07;;;12.70;99.90;;;;;;5087045;28;20047;-64
2024/03/27 09:12:15;;;;;;;23.67;5.18;;;12.80;99.90;;;;;;5089666;28;20027;-64
2024/03/27 09:14:41;;;;;;;35.28;4.75;;;12.70;99.90;;;;;;5091390;28;20028;-64
2024/03/27 09:17:08;;;;;;;12.70;3.53;;;12.60;99.90;;;;;;5079441;28;20078;-64
2024/03/27 09:19:35;;;;;;;5.65;2.95;;;12.70;99.90;;;;;;5089290;28;20073;-64
2024/03/27 09:22:01;;;;;;;6.15;3.45;;;12.70;99.90;;;;;;5088047;28;20056;-64
2024/03/27 09:24:28;;;;;;;7.72;3.40;;;12.70;99.90;;;;;;5086881;28;20410;-64
2024/03/27 09:26:54;;;;;;;4.97;3.20;;;12.70;99.90;;;;;;5090956;28;20045;-64
2024/03/27 09:29:19;;;;;;;7.70;3.35;;;12.80;99.90;;;;;;5099357;28;20504;-64
2024/03/27 09:31:45;;;;;;;5.20;3.20;;;12.80;99.90;;;;;;5109593;28;20039;-64
2024/03/27 09:34:11;;;;;;;5.40;2.78;;;12.70;99.90;;;;;;5093839;28;20036;-64
2024/03/27 09:36:36;;;;;;;4.50;3.55;;;12.60;99.90;;;;;;5091074;28;20456;-64
2024/03/27 09:39:02;;;;;;;7.65;3.55;;;12.60;99.90;;;;;;5089092;28;20088;-64
2024/03/27 09:41:28;;;;;;;9.27;3.72;;;12.60;99.90;;;;;;5078474;28;20177;-64
2024/03/27 09:43:56;;;;;;;6.10;3.00;;;12.40;99.90;;;;;;5093352;28;20476;-64
2024/03/27 09:46:22;;;;;;;5.97;2.22;;;12.30;99.90;;;;;;5092540;28;20040;-64
2024/03/27 09:48:49;;;;;;;3.60;1.98;;;12.30;99.90;;;;;;5092297;28;20040;-64
2024/03/27 09:51:16;;;;;;;5.70;1.85;;;12.10;99.90;;;;;;5093045;28;20057;-64
2024/03/27 09:53:43;;;;;;;5.63;2.55;;;12.10;99.90;;;;;;5090148;28;20074;-64
2024/03/27 09:56:10;;;;;;;3.40;2.67;;;12.20;99.90;;;;;;5091928;28;20032;-64
2024/03/27 09:58:36;;;;;;;2.15;1.88;;;12.10;99.90;;;;;;5092479;28;20040;-64
2024/03/27 10:01:06;;;;;;;3.20;2.30;;;12.10;99.90;;;;;;5088428;28;20519;-64
2024/03/27 10:03:34;;;;;;;2.60;1.67;;;12.10;99.90;;;;;;5092571;28;20067;-64
2024/03/27 10:06:00;;;;;;;5.07;2.30;;;12.10;99.90;;;;;;5092479;28;20366;-64
2024/03/27 10:08:26;;;;;;;3.65;1.63;;;12.00;99.90;;;;;;5091503;28;20065;-64
2024/03/27 10:10:56;;;;;;;3.85;2.25;;;11.90;99.90;;;;;;5083463;28;20089;-64
2024/03/27 10:13:23;;;;;;;4.80;2.30;;;11.90;99.90;;;;;;5096042;28;20036;-64
2024/03/27 10:15:52;;;;;;;4.35;1.83;;;11.90;99.90;;;;;;5096971;28;20036;-64
2024/03/27 10:18:18;;;;;;;10.82;2.95;;;11.80;99.90;;;;;;5094866;28;20043;-64
2024/03/27 10:20:45;;;;;;;10.48;2.38;;;12.10;99.90;;;;;;5100432;28;20032;-64
2024/03/27 10:23:15;;;;;;;3.28;2.38;;;11.50;99.90;;;;;;5096856;28;20058;-64
2024/03/27 10:25:41;;;;;;;4.70;2.05;;;11.50;99.90;;;;;;5096440;28;20035;-64
2024/03/27 10:28:10;;;;;;;2.65;1.58;;;11.40;99.90;;;;;;5099170;28;20051;-64
2024/03/27 10:30:36;;;;;;;2.72;1.60;;;11.40;99.90;;;;;;5094143;28;20054;-64
2024/03/27 10:33:03;;;;;;;3.55;1.35;;;11.40;99.90;;;;;;5095657;28;20047;-64
2024/03/27 10:35:36;;;;;;;4.47;1.25;;;11.30;99.90;;;;;;5096196;28;20040;-64
2024/03/27 10:38:02;;;;;;;4.30;2.10;;;11.30;99.90;;;;;;5116947;27;20070;-64
2024/03/27 10:40:29;;;;;;;5.35;3.10;;;11.30;99.90;;;;;;5099225;28;20048;-64
2024/03/27 10:43:03;;;;;;;3.75;2.60;;;11.40;99.90;;;;;;5097651;28;20043;-64
2024/03/27 10:45:30;;;;;;;2.75;2.55;;;11.40;99.90;;;;;;5099477;28;20090;-64
2024/03/27 10:47:57;;;;;;;2.85;1.75;;;11.40;99.90;;;;;;5092470;28;20437;-64
2024/03/27 10:50:25;;;;;;;4.85;2.63;;;11.40;99.90;;;;;;5097271;28;20140;-64
2024/03/27 10:52:52;;;;;;;3.08;2.45;;;11.30;99.90;;;;;;5100344;28;20046;-64
2024/03/27 10:55:18;;;;;;;3.85;2.50;;;11.30;99.90;;;;;;5099796;28;20093;-64
2024/03/27 10:57:46;;;;;;;2.97;2.42;;;11.40;99.90;;;;;;5101560;28;20032;-64
2024/03/27 11:00:13;;;;;;;5.70;2.70;;;11.40;99.90;;;;;;5098352;28;20078;-64
2024/03/27 11:02:50;;;;;;;3.00;2.63;;;11.50;99.90;;;;;;5093517;28;20041;-64
2024/03/27 11:05:16;;;;;;;4.95;3.05;;;11.60;99.90;;;;;;5098164;28;20097;-64
2024/03/27 11:07:42;;;;;;;4.57;2.80;;;11.60;99.90;;;;;;5092554;28;20040;-64
2024/03/27 11:10:09;;;;;;;4.82;3.50;;;11.60;99.90;;;;;;5096205;28;20063;-64
2024/03/27 11:12:36;;;;;;;4.47;3.65;;;11.70;99.90;;;;;;5100225;28;20155;-64
2024/03/27 11:15:07;;;;;;;5.88;3.55;;;11.70;99.90;;;;;;5097182;28;20485;-64
2024/03/27 11:17:32;;;;;;;6.35;3.60;;;11.60;99.90;;;;;;5094031;28;20044;-64
2024/03/27 11:20:01;;;;;;;3.55;3.10;;;11.60;99.90;;;;;;5101821;28;20032;-64
2024/03/27 11:22:26;;;;;;;3.65;2.83;;;11.60;99.90;;;;;;5082629;28;20042;-64
2024/03/27 11:24:52;;;;;;;6.10;3.00;;;11.60;99.90;;;;;;5096904;28;20126;-64
2024/03/27 11:27:25;;;;;;;4.65;3.25;;;11.60;99.90;;;;;;5084277;28;20032;-64
2024/03/27 11:29:58;;;;;;;3.75;2.90;;;11.60;99.90;;;;;;5099093;28;20051;-64
2024/03/27 11:32:31;;;;;;;6.28;2.53;;;11.50;99.90;;;;;;5095110;28;20131;-64
2024/03/27 11:34:57;;;;;;;4.50;2.00;;;11.60;99.90;;;;;;5083055;28;20036;-64
2024/03/27 11:37:23;;;;;;;2.83;2.38;;;11.70;99.90;;;;;;5100337;28;20049;-64
2024/03/27 11:39:48;;;;;;;3.45;2.60;;;11.70;99.90;;;;;;5097580;28;20044;-64
2024/03/27 11:42:14;;;;;;;4.35;3.00;;;11.60;99.90;;;;;;5097783;28;20036;-64
2024/03/27 11:44:39;;;;;;;5.65;3.50;;;11.50;99.90;;;;;;5097589;28;20040;-64
2024/03/27 11:47:05;;;;;;;4.60;3.15;;;11.40;99.90;;;;;;5097821;28;20047;-64
2024/03/27 11:49:31;;;;;;;5.10;3.58;;;11.30;99.90;;;;;;5096048;28;20134;-64
2024/03/27 11:51:57;;;;;;;5.55;4.20;;;11.20;99.90;;;;;;5100961;28;20359;-64
2024/03/27 11:54:27;;;;;;;6.38;4.45;;;11.20;99.90;;;;;;5079922;28;20097;-64
2024/03/27 11:56:52;;;;;;;4.93;4.10;;;11.20;99.90;;;;;;5082897;28;20043;-64
2024/03/27 11:59:18;;;;;;;6.30;4.47;;;11.30;99.90;;;;;;5097665;28;20239;-64
2024/03/27 12:01:44;;;;;;;5.82;4.70;;;11.40;99.90;;;;;;5095528;28;20528;-64
2024/03/27 12:04:10;;;;;;;5.25;4.72;;;11.40;99.90;;;;;;5093148;28;20039;-64
2024/03/27 12:06:36;;;;;;;7.80;5.50;;;11.60;99.90;;;;;;5098668;28;20036;-64
2024/03/27 12:09:03;;;;;;;6.70;5.85;;;11.50;99.90;;;;;;5094233;28;20036;-64
2024/03/27 12:11:29;;;;;;;5.78;4.93;;;11.40;99.90;;;;;;5093641;28;20055;-64
2024/03/27 12:13:56;;;;;;;6.07;5.45;;;11.40;99.90;;;;;;5090633;28;20035;-64
2024/03/27 12:16:22;;;;;;;5.65;5.00;;;11.40;99.90;;;;;;5093095;28;20467;-64
2024/03/27 12:18:47;;;;;;;7.05;5.57;;;11.40;99.90;;;;;;5096138;28;20047;-64
2024/03/27 12:21:15;;;;;;;5.72;5.22;;;11.30;99.90;;;;;;5093011;28;20542;-64
2024/03/27 12:23:43;;;;;;;8.20;6.63;;;11.30;99.90;;;;;;5079553;28;20036;-64
2024/03/27 12:26:12;;;;;;;7.38;5.72;;;11.20;99.90;;;;;;5092677;28;20563;-64
2024/03/27 12:28:45;;;;;;;9.02;7.05;;;11.20;99.90;;;;;;5093990;28;20040;-64
2024/03/27 12:31:14;;;;;;;9.80;7.35;;;11.10;99.90;;;;;;5096888;28;20036;-64
2024/03/27 12:33:40;;;;;;;6.22;5.50;;;11.10;99.90;;;;;;5096715;28;20375;-64
2024/03/27 12:36:06;;;;;;;8.20;6.78;;;11.00;99.90;;;;;;5092102;28;20039;-64
2024/03/27 12:38:31;;;;;;;7.75;6.95;;;11.00;99.90;;;;;;5094123;28;20120;-64
2024/03/27 12:40:57;;;;;;;10.52;7.53;;;11.00;99.90;;;;;;5093517;28;20090;-64
2024/03/27 12:43:23;;;;;;;8.15;6.47;;;11.00;99.90;;;;;;5095874;28;20044;-64
2024/03/27 12:45:49;;;;;;;7.38;6.00;;;11.00;99.90;;;;;;5097193;28;20118;-64